sensor_id;sensor_type;location;lat;lon;timestamp;pressure;altitude;pressure_sealevel;temperature;humidity
57610;BME280;43435;46.186;9.024;2024-01-30T09:16:36;100578.72;;;6.25;55.41
57610;BME280;43435;46.186;9.024;2024-01-30T09:19:01;100586.50;;;6.38;55.21
57610;BME280;43435;46.186;9.024;2024-01-30T09:21:26;100585.19;;;6.32;55.44
57610;BME280;43435;46.186;9.024;2024-01-30T09:23:54;100588.91;;;6.41;55.67
57610;BME280;43435;46.186;9.024;2024-01-30T09:26:19;100587.81;;;6.43;55.33
57610;BME280;43435;46.186;9.024;2024-01-30T09:28:45;100585.28;;;6.42;55.42
57610;BME280;43435;46.186;9.024;2024-01-30T09:31:10;100597.28;;;6.57;55.46
57610;BME280;43435;46.186;9.024;2024-01-30T09:33:36;100599.16;;;6.66;55.90
57610;BME280;43435;46.186;9.024;2024-01-30T09:36:01;100591.09;;;6.68;55.86
57610;BME280;43435;46.186;9.024;2024-01-30T09:38:27;100594.78;;;6.76;54.99
57610;BME280;43435;46.186;9.024;2024-01-30T09:40:54;100595.81;;;6.85;54.67
57610;BME280;43435;46.186;9.024;2024-01-30T09:43:23;100599.44;;;7.05;54.10
57610;BME280;43435;46.186;9.024;2024-01-30T09:45:50;100593.06;;;7.17;53.97
57610;BME280;43435;46.186;9.024;2024-01-30T09:48:15;100587.25;;;7.23;53.60
57610;BME280;43435;46.186;9.024;2024-01-30T09:50:41;100593.56;;;7.32;53.31
57610;BME280;43435;46.186;9.024;2024-01-30T09:53:08;100595.63;;;7.49;52.83
57610;BME280;43435;46.186;9.024;2024-01-30T09:55:35;100592.31;;;7.57;52.36
57610;BME280;43435;46.186;9.024;2024-01-30T09:58:01;100588.03;;;7.66;51.71
57610;BME280;43435;46.186;9.024;2024-01-30T10:00:26;100587.78;;;7.79;51.33
57610;BME280;43435;46.186;9.024;2024-01-30T10:02:52;100594.50;;;7.83;50.72
57610;BME280;43435;46.186;9.024;2024-01-30T10:05:19;100587.94;;;7.87;50.00
57610;BME280;43435;46.186;9.024;2024-01-30T10:07:53;100591.59;;;7.86;49.41
57610;BME280;43435;46.186;9.024;2024-01-30T10:10:23;100590.75;;;7.95;49.16
57610;BME280;43435;46.186;9.024;2024-01-30T10:12:49;100590.94;;;8.03;48.84
57610;BME280;43435;46.186;9.024;2024-01-30T10:15:14;100588.53;;;8.10;48.13
57610;BME280;43435;46.186;9.024;2024-01-30T10:17:40;100594.03;;;8.18;48.33
57610;BME280;43435;46.186;9.024;2024-01-30T10:20:05;100586.63;;;8.21;47.70
57610;BME280;43435;46.186;9.024;2024-01-30T10:22:31;100583.13;;;8.31;47.81
57610;BME280;43435;46.186;9.024;2024-01-30T10:24:57;100587.91;;;8.37;47.73
57610;BME280;43435;46.186;9.024;2024-01-30T10:27:26;100570.28;;;8.36;47.41
57610;BME280;43435;46.186;9.024;2024-01-30T10:29:52;100571.28;;;8.54;47.25
57610;BME280;43435;46.186;9.024;2024-01-30T10:32:17;100568.78;;;8.62;46.62
57610;BME280;43435;46.186;9.024;2024-01-30T10:34:43;100567.50;;;8.66;46.32
57610;BME280;43435;46.186;9.024;2024-01-30T10:37:10;100555.59;;;8.70;46.29
57610;BME280;43435;46.186;9.024;2024-01-30T10:39:39;100552.06;;;8.80;46.08
57610;BME280;43435;46.186;9.024;2024-01-30T10:42:05;100541.16;;;8.83;45.44
57610;BME280;43435;46.186;9.024;2024-01-30T10:44:57;100540.31;;;8.92;45.11
57610;BME280;43435;46.186;9.024;2024-01-30T10:47:27;100536.94;;;9.00;44.44
57610;BME280;43435;46.186;9.024;2024-01-30T10:49:54;100539.84;;;9.06;43.85
57610;BME280;43435;46.186;9.024;2024-01-30T10:52:20;100533.94;;;9.12;43.83
57610;BME280;43435;46.186;9.024;2024-01-30T10:54:46;100526.78;;;9.23;43.89
57610;BME280;43435;46.186;9.024;2024-01-30T10:57:12;100525.50;;;9.27;44.08
57610;BME280;43435;46.186;9.024;2024-01-30T10:59:38;100518.59;;;9.34;44.18
57610;BME280;43435;46.186;9.024;2024-01-30T11:02:04;100515.06;;;9.43;44.41
57610;BME280;43435;46.186;9.024;2024-01-30T11:04:37;100512.78;;;9.48;44.17
57610;BME280;43435;46.186;9.024;2024-01-30T11:07:03;100513.78;;;9.47;44.03
57610;BME280;43435;46.186;9.024;2024-01-30T11:09:38;100495.88;;;9.39;44.35
57610;BME280;43435;46.186;9.024;2024-01-30T11:12:03;100504.09;;;9.46;44.25
57610;BME280;43435;46.186;9.024;2024-01-30T11:14:30;100503.25;;;9.46;44.81
57610;BME280;43435;46.186;9.024;2024-01-30T11:16:59;100513.16;;;9.53;44.94
57610;BME280;43435;46.186;9.024;2024-01-30T11:19:30;100512.31;;;9.62;44.91
57610;BME280;43435;46.186;9.024;2024-01-30T11:21:56;100504.97;;;9.64;44.51
57610;BME280;43435;46.186;9.024;2024-01-30T11:24:24;100508.13;;;9.78;44.48
57610;BME280;43435;46.186;9.024;2024-01-30T11:26:55;100510.50;;;9.81;44.07
57610;BME280;43435;46.186;9.024;2024-01-30T11:29:27;100510.75;;;9.87;44.18
57610;BME280;43435;46.186;9.024;2024-01-30T11:31:54;100504.13;;;9.91;44.28
57610;BME280;43435;46.186;9.024;2024-01-30T11:34:20;100511.97;;;9.93;44.08
57610;BME280;43435;46.186;9.024;2024-01-30T11:36:50;100495.91;;;10.03;43.60
57610;BME280;43435;46.186;9.024;2024-01-30T11:39:19;100493.16;;;10.12;43.53
57610;BME280;43435;46.186;9.024;2024-01-30T11:41:45;100490.44;;;10.22;43.16
57610;BME280;43435;46.186;9.024;2024-01-30T11:44:11;100475.69;;;10.28;43.22
57610;BME280;43435;46.186;9.024;2024-01-30T11:46:36;100469.34;;;10.29;43.27
57610;BME280;43435;46.186;9.024;2024-01-30T11:49:02;100466.09;;;10.35;43.07
57610;BME280;43435;46.186;9.024;2024-01-30T11:51:27;100462.94;;;10.39;42.79
57610;BME280;43435;46.186;9.024;2024-01-30T11:53:53;100460.88;;;10.51;42.58
57610;BME280;43435;46.186;9.024;2024-01-30T11:56:18;100459.72;;;10.54;42.31
57610;BME280;43435;46.186;9.024;2024-01-30T11:58:43;100459.06;;;10.60;41.92
57610;BME280;43435;46.186;9.024;2024-01-30T12:01:10;100454.78;;;10.67;41.50
57610;BME280;43435;46.186;9.024;2024-01-30T12:03:35;100445.34;;;10.73;41.30
57610;BME280;43435;46.186;9.024;2024-01-30T12:06:02;100431.81;;;10.74;41.46
57610;BME280;43435;46.186;9.024;2024-01-30T12:08:28;100440.09;;;10.89;41.35
57610;BME280;43435;46.186;9.024;2024-01-30T12:11:00;100436.78;;;10.95;41.21
57610;BME280;43435;46.186;9.024;2024-01-30T12:13:30;100435.00;;;11.04;40.83
57610;BME280;43435;46.186;9.024;2024-01-30T12:15:56;100434.03;;;11.13;40.87
57610;BME280;43435;46.186;9.024;2024-01-30T12:18:21;100432.88;;;11.16;40.91
57610;BME280;43435;46.186;9.024;2024-01-30T12:21:05;100431.72;;;11.18;39.66
57610;BME280;43435;46.186;9.024;2024-01-30T12:23:30;100421.75;;;11.28;39.68
57610;BME280;43435;46.186;9.024;2024-01-30T12:25:56;100422.25;;;11.24;38.76
57610;BME280;43435;46.186;9.024;2024-01-30T12:28:22;100421.25;;;11.33;39.05
57610;BME280;43435;46.186;9.024;2024-01-30T12:30:47;100418.44;;;11.34;39.13
57610;BME280;43435;46.186;9.024;2024-01-30T12:33:16;100416.97;;;11.48;39.61
57610;BME280;43435;46.186;9.024;2024-01-30T12:35:47;100417.66;;;11.58;39.19
57610;BME280;43435;46.186;9.024;2024-01-30T12:38:13;100399.63;;;11.60;38.64
57610;BME280;43435;46.186;9.024;2024-01-30T12:40:38;100395.31;;;11.68;38.43
57610;BME280;43435;46.186;9.024;2024-01-30T12:43:04;100397.97;;;11.68;38.02
57610;BME280;43435;46.186;9.024;2024-01-30T12:45:29;100392.47;;;11.69;37.92
57610;BME280;43435;46.186;9.024;2024-01-30T12:47:55;100392.47;;;11.69;38.51
57610;BME280;43435;46.186;9.024;2024-01-30T12:50:20;100386.09;;;11.70;38.67
57610;BME280;43435;46.186;9.024;2024-01-30T12:52:46;100386.94;;;11.71;38.08
57610;BME280;43435;46.186;9.024;2024-01-30T12:55:11;100388.97;;;11.69;37.50
57610;BME280;43435;46.186;9.024;2024-01-30T12:57:37;100385.28;;;11.70;37.84
57610;BME280;43435;46.186;9.024;2024-01-30T13:00:05;100382.59;;;11.78;37.69
57610;BME280;43435;46.186;9.024;2024-01-30T13:02:33;100376.63;;;11.84;37.32
57610;BME280;43435;46.186;9.024;2024-01-30T13:05:04;100376.97;;;11.89;37.36
57610;BME280;43435;46.186;9.024;2024-01-30T13:07:30;100365.63;;;11.95;37.68
57610;BME280;43435;46.186;9.024;2024-01-30T13:09:58;100369.97;;;12.04;37.18
57610;BME280;43435;46.186;9.024;2024-01-30T13:12:29;100367.13;;;12.06;37.38
57610;BME280;43435;46.186;9.024;2024-01-30T13:14:54;100372.31;;;12.16;37.19
57610;BME280;43435;46.186;9.024;2024-01-30T13:17:20;100362.59;;;12.15;37.00
57610;BME280;43435;46.186;9.024;2024-01-30T13:19:45;100366.63;;;12.19;37.35
57610;BME280;43435;46.186;9.024;2024-01-30T13:22:10;100358.25;;;12.14;36.96
57610;BME280;43435;46.186;9.024;2024-01-30T13:24:36;100362.28;;;12.09;36.67
57610;BME280;43435;46.186;9.024;2024-01-30T13:27:01;100346.03;;;12.11;36.65
57610;BME280;43435;46.186;9.024;2024-01-30T13:29:26;100345.22;;;12.19;36.35
57610;BME280;43435;46.186;9.024;2024-01-30T13:31:51;100352.56;;;12.25;36.43
57610;BME280;43435;46.186;9.024;2024-01-30T13:34:17;100347.56;;;12.30;36.43
57610;BME280;43435;46.186;9.024;2024-01-30T13:36:42;100348.53;;;12.37;36.81
57610;BME280;43435;46.186;9.024;2024-01-30T13:39:08;100339.16;;;12.41;36.87
57610;BME280;43435;46.186;9.024;2024-01-30T13:41:36;100343.16;;;12.45;36.58
57610;BME280;43435;46.186;9.024;2024-01-30T13:44:01;100342.97;;;12.47;36.52
57610;BME280;43435;46.186;9.024;2024-01-30T13:46:29;100342.16;;;12.46;36.17
57610;BME280;43435;46.186;9.024;2024-01-30T13:48:54;100345.66;;;12.47;36.55
57610;BME280;43435;46.186;9.024;2024-01-30T13:51:19;100341.81;;;12.49;36.66
57610;BME280;43435;46.186;9.024;2024-01-30T13:53:44;100338.81;;;12.52;36.49
57610;BME280;43435;46.186;9.024;2024-01-30T13:56:10;100344.31;;;12.51;36.39
57610;BME280;43435;46.186;9.024;2024-01-30T13:58:35;100336.13;;;12.52;36.09
57610;BME280;43435;46.186;9.024;2024-01-30T14:01:01;100342.81;;;12.56;36.34
57610;BME280;43435;46.186;9.024;2024-01-30T14:03:26;100345.78;;;12.62;36.33
57610;BME280;43435;46.186;9.024;2024-01-30T14:05:52;100343.94;;;12.62;36.36
57610;BME280;43435;46.186;9.024;2024-01-30T14:08:17;100346.28;;;12.65;36.37
57610;BME280;43435;46.186;9.024;2024-01-30T14:10:42;100339.41;;;12.63;36.23
57610;BME280;43435;46.186;9.024;2024-01-30T14:13:08;100340.44;;;12.62;36.33
57610;BME280;43435;46.186;9.024;2024-01-30T14:15:33;100346.13;;;12.67;36.27
57610;BME280;43435;46.186;9.024;2024-01-30T14:17:59;100353.97;;;12.68;36.56
57610;BME280;43435;46.186;9.024;2024-01-30T14:20:24;100352.13;;;12.69;36.76
57610;BME280;43435;46.186;9.024;2024-01-30T14:22:49;100360.16;;;12.69;37.23
57610;BME280;43435;46.186;9.024;2024-01-30T14:25:15;100355.47;;;12.71;36.78
57610;BME280;43435;46.186;9.024;2024-01-30T14:27:41;100353.47;;;12.65;37.15
57610;BME280;43435;46.186;9.024;2024-01-30T14:30:10;100345.59;;;12.71;37.21
57610;BME280;43435;46.186;9.024;2024-01-30T14:32:35;100357.97;;;12.72;37.10
57610;BME280;43435;46.186;9.024;2024-01-30T14:35:00;100353.66;;;12.63;36.68
57610;BME280;43435;46.186;9.024;2024-01-30T14:37:26;100354.81;;;12.61;36.74
57610;BME280;43435;46.186;9.024;2024-01-30T14:39:54;100358.78;;;12.73;36.88
57610;BME280;43435;46.186;9.024;2024-01-30T14:42:19;100357.47;;;12.69;36.56
57610;BME280;43435;46.186;9.024;2024-01-30T14:44:44;100362.63;;;12.78;36.93
57610;BME280;43435;46.186;9.024;2024-01-30T14:47:10;100362.16;;;12.75;36.63
57610;BME280;43435;46.186;9.024;2024-01-30T14:49:35;100352.47;;;12.66;36.43
57610;BME280;43435;46.186;9.024;2024-01-30T14:52:00;100364.50;;;12.70;36.94
57610;BME280;43435;46.186;9.024;2024-01-30T14:54:26;100364.34;;;12.71;37.26
57610;BME280;43435;46.186;9.024;2024-01-30T14:56:51;100362.78;;;12.77;38.79
57610;BME280;43435;46.186;9.024;2024-01-30T14:59:17;100362.50;;;12.72;42.82
57610;BME280;43435;46.186;9.024;2024-01-30T15:01:42;100362.00;;;12.68;39.81
57610;BME280;43435;46.186;9.024;2024-01-30T15:04:08;100360.16;;;12.69;39.83
57610;BME280;43435;46.186;9.024;2024-01-30T15:06:33;100365.72;;;12.51;38.04
57610;BME280;43435;46.186;9.024;2024-01-30T15:08:58;100353.78;;;12.78;39.70
57610;BME280;43435;46.186;9.024;2024-01-30T15:11:24;100354.91;;;12.84;39.23
57610;BME280;43435;46.186;9.024;2024-01-30T15:13:49;100359.28;;;12.76;38.76
57610;BME280;43435;46.186;9.024;2024-01-30T15:16:14;100359.97;;;12.78;38.41
57610;BME280;43435;46.186;9.024;2024-01-30T15:18:40;100361.81;;;12.78;38.06
57610;BME280;43435;46.186;9.024;2024-01-30T15:21:05;100354.75;;;12.77;38.15
57610;BME280;43435;46.186;9.024;2024-01-30T15:23:30;100360.78;;;12.79;38.15
57610;BME280;43435;46.186;9.024;2024-01-30T15:25:55;100357.78;;;12.82;38.35
57610;BME280;43435;46.186;9.024;2024-01-30T15:28:33;100366.31;;;12.77;37.76
57610;BME280;43435;46.186;9.024;2024-01-30T15:31:00;100358.81;;;12.65;37.75
57610;BME280;43435;46.186;9.024;2024-01-30T15:33:25;100357.50;;;12.61;38.28
57610;BME280;43435;46.186;9.024;2024-01-30T15:35:50;100368.84;;;12.63;38.45
57610;BME280;43435;46.186;9.024;2024-01-30T15:38:16;100367.53;;;12.58;38.73
57610;BME280;43435;46.186;9.024;2024-01-30T15:40:42;100371.56;;;12.54;38.80
57610;BME280;43435;46.186;9.024;2024-01-30T15:43:08;100364.91;;;12.42;38.40
57610;BME280;43435;46.186;9.024;2024-01-30T15:45:33;100360.41;;;12.35;38.73
57610;BME280;43435;46.186;9.024;2024-01-30T15:47:59;100370.94;;;12.28;38.77
57610;BME280;43435;46.186;9.024;2024-01-30T15:50:24;100371.28;;;12.25;39.07
57610;BME280;43435;46.186;9.024;2024-01-30T15:52:50;100379.47;;;12.23;39.04
57610;BME280;43435;46.186;9.024;2024-01-30T15:55:15;100373.63;;;12.20;39.28
57610;BME280;43435;46.186;9.024;2024-01-30T15:57:40;100371.47;;;12.15;39.03
57610;BME280;43435;46.186;9.024;2024-01-30T16:00:06;100377.47;;;12.09;38.79
57610;BME280;43435;46.186;9.024;2024-01-30T16:02:32;100374.00;;;12.00;39.21
57610;BME280;43435;46.186;9.024;2024-01-30T16:04:57;100379.63;;;11.89;39.33
57610;BME280;43435;46.186;9.024;2024-01-30T16:07:23;100378.63;;;11.82;39.68
57610;BME280;43435;46.186;9.024;2024-01-30T16:09:48;100373.25;;;11.74;39.91
57610;BME280;43435;46.186;9.024;2024-01-30T16:12:13;100378.91;;;11.71;40.41
57610;BME280;43435;46.186;9.024;2024-01-30T16:14:38;100376.25;;;11.63;40.15
57610;BME280;43435;46.186;9.024;2024-01-30T16:17:04;100373.25;;;11.57;40.24
57610;BME280;43435;46.186;9.024;2024-01-30T16:19:29;100376.94;;;11.56;40.20
57610;BME280;43435;46.186;9.024;2024-01-30T16:21:54;100375.56;;;11.52;40.60
57610;BME280;43435;46.186;9.024;2024-01-30T16:24:20;100377.06;;;11.47;41.02
57610;BME280;43435;46.186;9.024;2024-01-30T16:26:48;100373.19;;;11.41;40.86
57610;BME280;43435;46.186;9.024;2024-01-30T16:29:13;100373.03;;;11.34;40.80
57610;BME280;43435;46.186;9.024;2024-01-30T16:31:39;100382.19;;;11.32;40.66
57610;BME280;43435;46.186;9.024;2024-01-30T16:34:04;100384.16;;;11.22;40.80
57610;BME280;43435;46.186;9.024;2024-01-30T16:36:29;100384.47;;;11.19;41.20
57610;BME280;43435;46.186;9.024;2024-01-30T16:38:54;100384.31;;;11.12;40.99
57610;BME280;43435;46.186;9.024;2024-01-30T16:41:20;100383.13;;;11.15;41.38
57610;BME280;43435;46.186;9.024;2024-01-30T16:43:46;100394.28;;;11.02;41.76
57610;BME280;43435;46.186;9.024;2024-01-30T16:46:11;100386.75;;;10.97;42.00
57610;BME280;43435;46.186;9.024;2024-01-30T16:48:36;100392.41;;;10.94;42.27
57610;BME280;43435;46.186;9.024;2024-01-30T16:51:02;100389.03;;;10.84;42.36
57610;BME280;43435;46.186;9.024;2024-01-30T16:53:27;100377.63;;;10.74;42.33
57610;BME280;43435;46.186;9.024;2024-01-30T16:55:52;100387.28;;;10.75;42.47
57610;BME280;43435;46.186;9.024;2024-01-30T16:58:18;100392.97;;;10.72;42.71
57610;BME280;43435;46.186;9.024;2024-01-30T17:00:43;100399.47;;;10.69;42.67
57610;BME280;43435;46.186;9.024;2024-01-30T17:03:08;100408.91;;;10.63;42.75
57610;BME280;43435;46.186;9.024;2024-01-30T17:05:33;100407.25;;;10.62;42.87
57610;BME280;43435;46.186;9.024;2024-01-30T17:07:59;100406.91;;;10.57;43.18
57610;BME280;43435;46.186;9.024;2024-01-30T17:10:24;100398.63;;;10.69;42.98
57610;BME280;43435;46.186;9.024;2024-01-30T17:12:49;100404.59;;;10.62;42.93
57610;BME280;43435;46.186;9.024;2024-01-30T17:15:15;100396.16;;;10.49;43.09
57610;BME280;43435;46.186;9.024;2024-01-30T17:17:40;100400.81;;;10.47;42.68
57610;BME280;43435;46.186;9.024;2024-01-30T17:20:06;100401.31;;;10.43;42.87
57610;BME280;43435;46.186;9.024;2024-01-30T17:22:32;100402.97;;;10.44;42.71
57610;BME280;43435;46.186;9.024;2024-01-30T17:24:57;100395.44;;;10.39;42.76
57610;BME280;43435;46.186;9.024;2024-01-30T17:27:23;100401.59;;;10.39;43.18
57610;BME280;43435;46.186;9.024;2024-01-30T17:29:48;100396.41;;;10.38;43.52
57610;BME280;43435;46.186;9.024;2024-01-30T17:32:13;100408.56;;;10.32;43.80
57610;BME280;43435;46.186;9.024;2024-01-30T17:34:39;100408.34;;;10.26;43.75
57610;BME280;43435;46.186;9.024;2024-01-30T17:37:04;100407.63;;;10.24;43.41
57610;BME280;43435;46.186;9.024;2024-01-30T17:39:30;100410.31;;;10.24;43.49
57610;BME280;43435;46.186;9.024;2024-01-30T17:41:55;100413.38;;;10.29;43.44
57610;BME280;43435;46.186;9.024;2024-01-30T17:44:21;100419.00;;;10.26;43.60
57610;BME280;43435;46.186;9.024;2024-01-30T17:46:47;100413.28;;;10.21;43.82
57610;BME280;43435;46.186;9.024;2024-01-30T17:49:13;100422.25;;;10.20;43.76
57610;BME280;43435;46.186;9.024;2024-01-30T17:51:39;100423.53;;;10.15;44.03
57610;BME280;43435;46.186;9.024;2024-01-30T17:54:07;100407.50;;;10.07;44.19
57610;BME280;43435;46.186;9.024;2024-01-30T17:56:33;100422.94;;;10.04;44.51
57610;BME280;43435;46.186;9.024;2024-01-30T17:58:58;100419.75;;;10.00;44.09
57610;BME280;43435;46.186;9.024;2024-01-30T18:01:23;100423.41;;;9.99;44.22
57610;BME280;43435;46.186;9.024;2024-01-30T18:03:48;100423.94;;;10.03;44.18
57610;BME280;43435;46.186;9.024;2024-01-30T18:06:17;100431.47;;;10.07;43.94
57610;BME280;43435;46.186;9.024;2024-01-30T18:08:43;100425.91;;;10.01;44.12
57610;BME280;43435;46.186;9.024;2024-01-30T18:11:08;100435.44;;;10.03;44.40
57610;BME280;43435;46.186;9.024;2024-01-30T18:13:34;100439.13;;;10.02;44.46
57610;BME280;43435;46.186;9.024;2024-01-30T18:15:59;100439.25;;;10.01;44.58
57610;BME280;43435;46.186;9.024;2024-01-30T18:18:25;100449.38;;;9.97;44.70
57610;BME280;43435;46.186;9.024;2024-01-30T18:20:51;100434.69;;;9.93;45.17
57610;BME280;43435;46.186;9.024;2024-01-30T18:23:16;100444.88;;;9.98;45.02
57610;BME280;43435;46.186;9.024;2024-01-30T18:25:42;100434.31;;;9.88;45.22
57610;BME280;43435;46.186;9.024;2024-01-30T18:28:07;100445.22;;;9.95;44.75
57610;BME280;43435;46.186;9.024;2024-01-30T18:30:32;100448.53;;;9.97;44.69
57610;BME280;43435;46.186;9.024;2024-01-30T18:32:58;100444.44;;;10.02;44.57
57610;BME280;43435;46.186;9.024;2024-01-30T18:35:23;100439.53;;;9.98;44.68
57610;BME280;43435;46.186;9.024;2024-01-30T18:37:48;100444.03;;;9.97;44.31
57610;BME280;43435;46.186;9.024;2024-01-30T18:40:14;100442.06;;;9.99;44.51
57610;BME280;43435;46.186;9.024;2024-01-30T18:42:39;100444.03;;;9.97;44.19
57610;BME280;43435;46.186;9.024;2024-01-30T18:45:05;100441.69;;;9.94;44.45
57610;BME280;43435;46.186;9.024;2024-01-30T18:47:31;100439.72;;;9.96;44.72
57610;BME280;43435;46.186;9.024;2024-01-30T18:49:56;100438.88;;;9.96;44.14
57610;BME280;43435;46.186;9.024;2024-01-30T18:52:21;100428.50;;;9.92;44.55
57610;BME280;43435;46.186;9.024;2024-01-30T18:54:47;100434.84;;;9.91;44.42
57610;BME280;43435;46.186;9.024;2024-01-30T18:57:12;100435.97;;;9.89;44.48
57610;BME280;43435;46.186;9.024;2024-01-30T18:59:38;100431.94;;;9.85;44.62
57610;BME280;43435;46.186;9.024;2024-01-30T19:02:03;100443.91;;;9.81;44.90
57610;BME280;43435;46.186;9.024;2024-01-30T19:04:28;100435.53;;;9.76;45.06
57610;BME280;43435;46.186;9.024;2024-01-30T19:06:54;100424.47;;;9.71;45.03
57610;BME280;43435;46.186;9.024;2024-01-30T19:09:20;100435.66;;;9.74;45.40
57610;BME280;43435;46.186;9.024;2024-01-30T19:11:46;100428.38;;;9.76;45.21
57610;BME280;43435;46.186;9.024;2024-01-30T19:14:12;100429.66;;;9.72;45.41
57610;BME280;43435;46.186;9.024;2024-01-30T19:16:37;100434.53;;;9.77;45.35
57610;BME280;43435;46.186;9.024;2024-01-30T19:19:02;100433.16;;;9.73;45.46
57610;BME280;43435;46.186;9.024;2024-01-30T19:21:34;100438.19;;;9.76;45.52
57610;BME280;43435;46.186;9.024;2024-01-30T19:24:03;100424.47;;;9.71;45.38
57610;BME280;43435;46.186;9.024;2024-01-30T19:26:29;100440.47;;;9.71;45.26
57610;BME280;43435;46.186;9.024;2024-01-30T19:28:54;100434.13;;;9.72;45.43
57610;BME280;43435;46.186;9.024;2024-01-30T19:31:20;100437.13;;;9.68;45.37
57610;BME280;43435;46.186;9.024;2024-01-30T19:33:45;100441.47;;;9.70;45.34
57610;BME280;43435;46.186;9.024;2024-01-30T19:36:11;100435.88;;;9.63;45.46
57610;BME280;43435;46.186;9.024;2024-01-30T19:38:36;100438.31;;;9.56;45.69
57610;BME280;43435;46.186;9.024;2024-01-30T19:41:01;100446.69;;;9.61;45.67
57610;BME280;43435;46.186;9.024;2024-01-30T19:43:27;100445.53;;;9.64;45.63
57610;BME280;43435;46.186;9.024;2024-01-30T19:45:52;100445.00;;;9.60;45.71
57610;BME280;43435;46.186;9.024;2024-01-30T19:48:18;100451.78;;;9.55;46.15
57610;BME280;43435;46.186;9.024;2024-01-30T19:50:43;100447.28;;;9.55;45.82
57610;BME280;43435;46.186;9.024;2024-01-30T19:53:09;100441.06;;;9.47;46.38
57610;BME280;43435;46.186;9.024;2024-01-30T19:55:34;100454.91;;;9.50;46.57
57610;BME280;43435;46.186;9.024;2024-01-30T19:57:59;100457.69;;;9.49;46.90
57610;BME280;43435;46.186;9.024;2024-01-30T20:00:26;100449.56;;;9.50;46.57
57610;BME280;43435;46.186;9.024;2024-01-30T20:02:51;100458.81;;;9.46;46.77
57610;BME280;43435;46.186;9.024;2024-01-30T20:05:16;100452.81;;;9.44;46.82
57610;BME280;43435;46.186;9.024;2024-01-30T20:07:42;100445.84;;;9.43;46.46
57610;BME280;43435;46.186;9.024;2024-01-30T20:10:07;100446.25;;;9.38;46.92
57610;BME280;43435;46.186;9.024;2024-01-30T20:12:33;100454.03;;;9.50;46.88
57610;BME280;43435;46.186;9.024;2024-01-30T20:14:59;100446.66;;;9.43;47.58
57610;BME280;43435;46.186;9.024;2024-01-30T20:17:24;100451.28;;;9.41;47.25
57610;BME280;43435;46.186;9.024;2024-01-30T20:19:50;100444.13;;;9.42;47.12
57610;BME280;43435;46.186;9.024;2024-01-30T20:22:19;100441.19;;;9.45;46.90
57610;BME280;43435;46.186;9.024;2024-01-30T20:24:44;100443.00;;;9.44;47.04
57610;BME280;43435;46.186;9.024;2024-01-30T20:27:11;100442.31;;;9.42;47.31
57610;BME280;43435;46.186;9.024;2024-01-30T20:29:37;100436.47;;;9.39;47.40
57610;BME280;43435;46.186;9.024;2024-01-30T20:32:03;100445.72;;;9.35;47.42
57610;BME280;43435;46.186;9.024;2024-01-30T20:34:28;100436.75;;;9.36;47.20
57610;BME280;43435;46.186;9.024;2024-01-30T20:36:55;100435.06;;;9.35;47.27
57610;BME280;43435;46.186;9.024;2024-01-30T20:39:20;100433.41;;;9.34;47.28
57610;BME280;43435;46.186;9.024;2024-01-30T20:41:45;100437.06;;;9.33;47.63
57610;BME280;43435;46.186;9.024;2024-01-30T20:44:11;100432.03;;;9.30;47.32
57610;BME280;43435;46.186;9.024;2024-01-30T20:46:38;100432.72;;;9.32;47.53
57610;BME280;43435;46.186;9.024;2024-01-30T20:49:04;100437.06;;;9.33;47.35
57610;BME280;43435;46.186;9.024;2024-01-30T20:51:29;100436.25;;;9.23;47.67
57610;BME280;43435;46.186;9.024;2024-01-30T20:53:55;100436.81;;;9.26;47.54
57610;BME280;43435;46.186;9.024;2024-01-30T20:56:21;100428.28;;;9.23;47.44
57610;BME280;43435;46.186;9.024;2024-01-30T20:58:46;100413.63;;;9.09;47.41
57610;BME280;43435;46.186;9.024;2024-01-30T21:01:11;100440.16;;;9.28;47.37
57610;BME280;43435;46.186;9.024;2024-01-30T21:03:37;100443.66;;;9.29;47.39
57610;BME280;43435;46.186;9.024;2024-01-30T21:06:02;100434.31;;;9.25;47.35
57610;BME280;43435;46.186;9.024;2024-01-30T21:08:28;100446.03;;;9.32;47.34
57610;BME280;43435;46.186;9.024;2024-01-30T21:10:53;100443.66;;;9.29;47.30
57610;BME280;43435;46.186;9.024;2024-01-30T21:13:19;100437.94;;;9.24;47.44
57610;BME280;43435;46.186;9.024;2024-01-30T21:15:45;100441.97;;;9.28;47.15
57610;BME280;43435;46.186;9.024;2024-01-30T21:18:10;100437.25;;;9.22;47.21
57610;BME280;43435;46.186;9.024;2024-01-30T21:20:37;100445.25;;;9.22;47.23
57610;BME280;43435;46.186;9.024;2024-01-30T21:23:02;100442.56;;;9.22;47.27
57610;BME280;43435;46.186;9.024;2024-01-30T21:25:27;100433.06;;;9.19;47.06
57610;BME280;43435;46.186;9.024;2024-01-30T21:27:54;100446.53;;;9.17;47.13
57610;BME280;43435;46.186;9.024;2024-01-30T21:30:19;100441.88;;;9.19;47.12
57610;BME280;43435;46.186;9.024;2024-01-30T21:32:44;100442.03;;;9.18;47.21
57610;BME280;43435;46.186;9.024;2024-01-30T21:35:11;100432.97;;;9.11;47.19
57610;BME280;43435;46.186;9.024;2024-01-30T21:37:36;100430.69;;;9.16;47.49
57610;BME280;43435;46.186;9.024;2024-01-30T21:40:02;100435.06;;;9.07;47.64
